Time;durP1;ratioP1;P1;durP2;ratioP2;P2;SDS_P1;SDS_P2;PMS_P1;PMS_P2;Temp;Humidity;BMP_temperature;BMP_pressure;BME280_temperature;BME280_humidity;BME280_pressure;Samples;Min_cycle;Max_cycle;Signal;HPM_P1;HPM_P2
2023/06/25 00:00:27;;;;;;;10.48;7.57;;;;;;;14.20;100.00;99108.75;4179864;28;20119;-74
2023/06/25 00:02:28;;;;;;;10.18;7.22;;;;;;;14.17;100.00;99107.56;4179106;28;20040;-74
2023/06/25 00:04:28;;;;;;;10.20;7.07;;;;;;;14.12;100.00;99112.66;4177646;28;20048;-74
2023/06/25 00:06:28;;;;;;;10.77;7.00;;;;;;;14.16;100.00;99116.28;4178295;28;20064;-74
2023/06/25 00:08:28;;;;;;;9.15;7.28;;;;;;;14.18;100.00;99111.13;4182503;28;20485;-74
2023/06/25 00:10:29;;;;;;;9.30;7.28;;;;;;;14.15;100.00;99117.44;4181080;28;20449;-74
2023/06/25 00:12:29;;;;;;;11.30;8.18;;;;;;;14.11;100.00;99103.53;4174845;28;20049;-74
2023/06/25 00:14:29;;;;;;;23.40;7.93;;;;;;;14.08;100.00;99104.31;4179774;28;20111;-74
2023/06/25 00:16:30;;;;;;;9.05;6.95;;;;;;;14.04;100.00;99115.41;4179758;28;20051;-74
2023/06/25 00:18:33;;;;;;;8.90;6.78;;;;;;;14.08;100.00;99106.28;4175039;28;20064;-74
2023/06/25 00:20:33;;;;;;;;;;;;;;;14.03;100.00;99111.03;4178647;28;20041;-74
2023/06/25 00:22:34;;;;;;;9.88;6.70;;;;;;;14.02;100.00;99094.72;4176900;28;20011;-74
2023/06/25 00:24:34;;;;;;;10.48;6.40;;;;;;;14.02;100.00;99094.72;4174731;28;20041;-74
2023/06/25 00:26:34;;;;;;;9.55;7.35;;;;;;;14.05;100.00;99093.94;4185319;28;20037;-74
2023/06/25 00:28:34;;;;;;;9.70;7.40;;;;;;;14.04;100.00;99092.34;4181713;28;20490;-74
2023/06/25 00:30:36;;;;;;;9.52;7.28;;;;;;;14.03;100.00;99104.66;4175982;28;20049;-74
2023/06/25 00:32:36;;;;;;;11.85;7.78;;;;;;;13.98;100.00;99102.22;4173553;28;20070;-74
2023/06/25 00:34:41;;;;;;;8.65;6.82;;;;;;;13.91;100.00;99104.97;4187581;28;20043;-74
2023/06/25 00:36:45;;;;;;;12.52;7.43;;;;;;;13.92;100.00;99096.25;4173444;28;20391;-74
2023/06/25 00:38:47;;;;;;;10.35;7.40;;;;;;;13.91;100.00;99102.19;4172685;28;20087;-74
2023/06/25 00:40:47;;;;;;;11.50;8.32;;;;;;;13.82;100.00;99096.13;4175954;28;20060;-74
2023/06/25 00:42:49;;;;;;;12.60;6.70;;;;;;;13.73;100.00;99090.91;4177345;28;20056;-74
2023/06/25 00:44:49;;;;;;;10.60;6.50;;;;;;;13.71;100.00;99093.25;4177210;28;20315;-74
2023/06/25 00:46:49;;;;;;;8.50;7.03;;;;;;;13.68;100.00;99089.28;4178147;28;20307;-74
2023/06/25 00:48:50;;;;;;;10.00;6.70;;;;;;;13.63;100.00;99092.41;4180387;28;20574;-74
2023/06/25 00:50:50;;;;;;;10.82;6.70;;;;;;;13.63;100.00;99092.41;4174487;28;20133;-74
2023/06/25 00:52:51;;;;;;;8.73;5.63;;;;;;;13.60;100.00;99092.38;4171234;28;20449;-74
2023/06/25 00:54:52;;;;;;;10.82;6.03;;;;;;;13.56;100.00;99097.09;4175350;28;20057;-74
2023/06/25 00:56:52;;;;;;;9.50;6.30;;;;;;;13.46;100.00;99098.59;4172563;28;20059;-74
2023/06/25 00:58:54;;;;;;;13.30;6.20;;;;;;;13.43;100.00;99097.38;4176477;28;20049;-74
2023/06/25 01:00:59;;;;;;;9.27;5.60;;;;;;;13.40;100.00;99083.44;4175615;28;20148;-74
2023/06/25 01:03:26;;;;;;;9.88;6.35;;;;;;;13.37;100.00;99087.78;4172919;28;20500;-74
2023/06/25 01:05:32;;;;;;;12.90;6.20;;;;;;;13.34;100.00;99088.56;4173292;28;20049;-74
2023/06/25 01:07:36;;;;;;;10.65;5.90;;;;;;;13.33;100.00;99095.31;4174258;28;20044;-74
2023/06/25 01:09:37;;;;;;;9.18;6.60;;;;;;;13.26;100.00;99086.09;4173773;28;20067;-74
2023/06/25 01:11:38;;;;;;;9.23;6.15;;;;;;;13.25;100.00;99087.28;4174065;28;20110;-73
2023/06/25 01:13:38;;;;;;;9.68;5.55;;;;;;;13.24;100.00;99083.69;4173845;28;20040;-74
2023/06/25 01:15:39;;;;;;;8.32;5.80;;;;;;;13.22;100.00;99088.81;4174701;28;20040;-74
2023/06/25 01:17:39;;;;;;;9.18;6.68;;;;;;;13.20;100.00;99086.44;4173766;28;20123;-73
2023/06/25 01:19:40;;;;;;;11.63;7.00;;;;;;;13.19;100.00;99081.22;4174457;28;20393;-74
2023/06/25 01:21:42;;;;;;;8.88;6.65;;;;;;;13.19;100.00;99086.78;4188128;28;20451;-74
2023/06/25 01:23:42;;;;;;;11.13;7.22;;;;;;;13.15;100.00;99081.16;4186171;28;20036;-74
2023/06/25 01:25:47;;;;;;;11.02;6.45;;;;;;;13.15;100.00;99075.63;4184047;28;20110;-74
2023/06/25 01:27:49;;;;;;;14.30;6.32;;;;;;;13.23;100.00;99079.31;4178310;28;20344;-74
2023/06/25 01:29:50;;;;;;;9.10;6.53;;;;;;;13.25;100.00;99070.59;4171870;28;20220;-74
2023/06/25 01:31:51;;;;;;;10.98;7.15;;;;;;;13.20;100.00;99069.75;4178533;28;20044;-74
2023/06/25 01:33:51;;;;;;;8.02;6.65;;;;;;;13.13;100.00;99072.44;4174988;28;20192;-74
2023/06/25 01:35:53;;;;;;;13.65;6.78;;;;;;;13.10;100.00;99070.41;4175708;28;20052;-74
2023/06/25 01:37:53;;;;;;;9.23;6.30;;;;;;;13.06;100.00;99072.34;4178248;28;20052;-74
2023/06/25 01:39:54;;;;;;;12.93;6.43;;;;;;;13.07;100.00;99067.59;4178216;28;20408;-74
2023/06/25 01:41:56;;;;;;;12.00;6.53;;;;;;;13.00;100.00;99073.09;4176920;28;20140;-74
2023/06/25 01:43:56;;;;;;;7.40;5.72;;;;;;;12.92;100.00;99070.22;4187567;28;20041;-75
2023/06/25 01:45:58;;;;;;;11.60;6.47;;;;;;;12.92;100.00;99066.66;4179926;28;20153;-74
2023/06/25 01:47:58;;;;;;;14.35;6.43;;;;;;;12.89;100.00;99061.84;4174449;28;20538;-75
2023/06/25 01:49:59;;;;;;;11.00;6.00;;;;;;;12.88;100.00;99066.59;4175221;28;20076;-75
2023/06/25 01:52:02;;;;;;;13.15;6.70;;;;;;;12.91;100.00;99063.06;4180324;28;20049;-74
2023/06/25 01:54:03;;;;;;;13.27;7.22;;;;;;;12.92;100.00;99061.09;4185242;28;20032;-75
2023/06/25 01:56:04;;;;;;;11.80;6.63;;;;;;;12.86;100.00;99060.63;4175635;28;20061;-75
2023/06/25 01:58:04;;;;;;;12.77;6.88;;;;;;;12.83;100.00;99066.94;4175796;28;20024;-75
2023/06/25 02:00:10;;;;;;;10.90;6.97;;;;;;;12.79;100.00;99056.97;4173403;28;20055;-75
2023/06/25 02:02:10;;;;;;;9.50;6.30;;;;;;;12.73;100.00;99061.25;4173321;28;20025;-75
2023/06/25 02:04:10;;;;;;;10.57;7.25;;;;;;;12.74;100.00;99060.06;4172639;28;20497;-75
2023/06/25 02:06:10;;;;;;;9.43;6.72;;;;;;;12.70;100.00;99056.47;4173161;28;20348;-75
2023/06/25 02:08:11;;;;;;;9.55;6.63;;;;;;;12.69;100.00;99060.41;4183191;28;20392;-75
2023/06/25 02:10:14;;;;;;;14.55;7.25;;;;;;;12.67;100.00;99060.81;4172911;28;20064;-75
2023/06/25 02:12:15;;;;;;;8.40;6.15;;;;;;;12.64;100.00;99051.22;4176875;28;20029;-75
2023/06/25 02:14:15;;;;;;;9.50;6.55;;;;;;;12.64;100.00;99051.22;4182237;28;20036;-75
2023/06/25 02:16:16;;;;;;;11.68;7.18;;;;;;;12.62;100.00;99053.59;4185519;28;20029;-75
2023/06/25 02:18:16;;;;;;;9.07;5.95;;;;;;;12.60;100.00;99052.38;4181370;28;20032;-75
2023/06/25 02:20:17;;;;;;;19.90;8.20;;;;;;;12.59;100.00;99051.59;4186345;28;20025;-75
2023/06/25 02:22:17;;;;;;;15.40;6.55;;;;;;;12.59;100.00;99046.03;4175739;28;20033;-75
2023/06/25 02:24:17;;;;;;;11.23;6.32;;;;;;;12.55;100.00;99042.41;4171016;28;20080;-75
2023/06/25 02:26:18;;;;;;;15.18;7.57;;;;;;;12.54;100.00;99042.78;4184052;28;20037;-75
2023/06/25 02:28:18;;;;;;;11.15;7.60;;;;;;;12.52;100.00;99040.38;4175253;28;20063;-75
2023/06/25 02:30:19;;;;;;;12.10;6.82;;;;;;;12.51;100.00;99047.13;4173490;28;20028;-75
2023/06/25 02:32:19;;;;;;;11.88;7.80;;;;;;;12.46;100.00;99043.88;4180929;28;20029;-75
2023/06/25 02:34:20;;;;;;;11.15;7.00;;;;;;;12.40;100.00;99037.84;4186013;28;20431;-75
2023/06/25 02:36:20;;;;;;;11.43;7.60;;;;;;;12.38;100.00;99032.66;4177581;28;20021;-75
2023/06/25 02:38:20;;;;;;;10.52;6.63;;;;;;;12.43;100.00;99041.84;4172214;28;20043;-75
2023/06/25 02:40:21;;;;;;;7.22;6.25;;;;;;;12.46;100.00;99032.75;4172739;28;20044;-75
2023/06/25 02:42:22;;;;;;;13.75;7.28;;;;;;;12.44;100.00;99040.69;4183386;28;20088;-75
2023/06/25 02:44:22;;;;;;;10.63;6.40;;;;;;;12.42;100.00;99041.06;4187796;28;20072;-75
2023/06/25 02:46:22;;;;;;;11.77;6.97;;;;;;;12.36;100.00;99034.22;4176106;28;20090;-75
2023/06/25 02:48:23;;;;;;;12.68;6.70;;;;;;;12.27;100.00;99034.50;4182283;28;20040;-75
2023/06/25 02:50:23;;;;;;;15.32;6.97;;;;;;;12.29;100.00;99048.81;4179956;28;20481;-75
2023/06/25 02:52:24;;;;;;;12.32;6.93;;;;;;;12.21;100.00;99043.53;4183573;28;20037;-75
2023/06/25 02:54:24;;;;;;;9.35;6.78;;;;;;;12.20;100.00;99042.72;4186554;28;20043;-75
2023/06/25 02:56:24;;;;;;;10.45;6.30;;;;;;;12.19;100.00;99035.59;4183368;28;20080;-75
2023/06/25 02:58:24;;;;;;;12.20;6.18;;;;;;;12.16;100.00;99030.78;4181722;28;20049;-75
2023/06/25 03:00:25;;;;;;;10.35;6.13;;;;;;;12.15;100.00;99034.72;4181105;28;20076;-75
2023/06/25 03:02:25;;;;;;;11.88;6.20;;;;;;;12.22;100.00;99034.81;4177627;28;20036;-75
2023/06/25 03:04:26;;;;;;;15.05;7.10;;;;;;;12.20;100.00;99030.84;4182795;28;20033;-75
2023/06/25 03:06:26;;;;;;;9.57;6.65;;;;;;;12.14;100.00;99032.34;4181803;28;20048;-75
2023/06/25 03:08:26;;;;;;;8.55;6.13;;;;;;;12.10;100.00;99021.19;4187586;28;20526;-75
2023/06/25 03:10:29;;;;;;;11.13;6.80;;;;;;;12.09;100.00;99028.72;4179029;28;20052;-75
2023/06/25 03:12:29;;;;;;;;;;;;;;;12.08;100.00;99032.69;4174054;28;20045;-75
2023/06/25 03:14:30;;;;;;;8.90;5.80;;;;;;;12.13;100.00;99025.97;4175702;28;19913;-75
2023/06/25 03:16:30;;;;;;;15.70;6.30;;;;;;;12.18;100.00;99024.88;4178507;28;20786;-75
2023/06/25 03:18:30;;;;;;;10.85;6.03;;;;;;;12.23;100.00;99030.06;4174498;28;20041;-75
2023/06/25 03:20:31;;;;;;;9.43;5.78;;;;;;;12.23;100.00;99019.78;4175660;28;20045;-74
2023/06/25 03:22:31;;;;;;;11.13;6.55;;;;;;;12.19;100.00;99030.03;4181157;28;20048;-75
2023/06/25 03:24:31;;;;;;;7.93;5.93;;;;;;;12.17;100.00;99026.84;4180031;28;20037;-75
2023/06/25 03:26:32;;;;;;;10.65;6.47;;;;;;;12.13;100.00;99025.97;4177912;28;20049;-75
2023/06/25 03:28:32;;;;;;;17.30;6.97;;;;;;;12.12;100.00;99023.59;4175150;28;20037;-75
2023/06/25 03:30:33;;;;;;;8.23;5.90;;;;;;;12.09;100.00;99025.94;4190465;28;20040;-75
2023/06/25 03:32:33;;;;;;;12.15;6.40;;;;;;;12.03;100.00;99015.53;4174192;28;20049;-75
2023/06/25 03:34:33;;;;;;;9.25;6.35;;;;;;;12.06;100.00;99023.09;4175710;28;20219;-75
2023/06/25 03:36:34;;;;;;;10.55;6.38;;;;;;;12.05;100.00;99019.53;4185243;28;20215;-75
2023/06/25 03:38:34;;;;;;;11.23;6.68;;;;;;;12.07;100.00;99022.72;4180196;28;20048;-74
2023/06/25 03:40:35;;;;;;;9.55;6.57;;;;;;;12.08;100.00;99027.13;4181621;28;20043;-74
2023/06/25 03:42:35;;;;;;;13.30;6.80;;;;;;;12.06;100.00;99028.66;4177283;28;20124;-74
2023/06/25 03:44:35;;;;;;;11.65;7.43;;;;;;;12.05;100.00;99032.59;4175104;28;20091;-74
2023/06/25 03:46:36;;;;;;;11.68;7.05;;;;;;;12.03;100.00;99021.91;4185972;28;20170;-74
2023/06/25 03:48:37;;;;;;;12.63;7.15;;;;;;;12.06;100.00;99023.91;4178690;28;20119;-75
2023/06/25 03:50:37;;;;;;;15.50;7.07;;;;;;;12.08;100.00;99021.59;4182457;28;20037;-74
2023/06/25 03:52:37;;;;;;;7.88;6.05;;;;;;;12.13;100.00;99020.44;4188704;28;20044;-74
2023/06/25 03:54:38;;;;;;;16.60;6.57;;;;;;;12.12;100.00;99013.28;4188360;28;20045;-74
2023/06/25 03:56:38;;;;;;;10.98;6.95;;;;;;;12.14;100.00;99022.03;4181844;28;20473;-75
2023/06/25 03:58:38;;;;;;;14.88;7.35;;;;;;;12.11;100.00;99019.22;4176980;28;20044;-74
2023/06/25 04:00:39;;;;;;;16.40;6.78;;;;;;;12.16;100.00;99018.88;4175935;28;20053;-75
2023/06/25 04:02:40;;;;;;;12.07;7.07;;;;;;;12.12;100.00;99024.38;4174208;28;20095;-75
2023/06/25 04:04:40;;;;;;;17.63;7.57;;;;;;;12.10;100.00;99015.66;4174737;28;20451;-75
2023/06/25 04:06:40;;;;;;;17.92;8.30;;;;;;;12.13;100.00;99014.88;4175654;28;20045;-74
2023/06/25 04:08:41;;;;;;;13.20;8.30;;;;;;;12.16;100.00;99016.91;4179793;28;20107;-74
2023/06/25 04:10:41;;;;;;;17.73;8.35;;;;;;;12.18;100.00;99011.81;4180986;28;20045;-75
2023/06/25 04:12:41;;;;;;;16.13;8.90;;;;;;;12.27;100.00;99017.06;4189523;28;20082;-74
2023/06/25 04:14:41;;;;;;;11.45;8.05;;;;;;;12.34;100.00;99023.50;4175314;28;20480;-74
2023/06/25 04:16:42;;;;;;;13.90;8.27;;;;;;;12.38;100.00;99009.66;4174086;28;20048;-75
2023/06/25 04:18:42;;;;;;;15.45;8.13;;;;;;;12.46;100.00;99018.88;4178259;28;20079;-75
2023/06/25 04:20:42;;;;;;;12.95;7.55;;;;;;;12.52;100.00;99020.16;4178848;28;20041;-75
2023/06/25 04:22:43;;;;;;;13.63;7.80;;;;;;;12.60;100.00;99017.09;4183568;28;20548;-74
2023/06/25 04:24:43;;;;;;;15.68;8.05;;;;;;;12.68;100.00;99017.97;4174495;28;20376;-74
2023/06/25 04:26:43;;;;;;;12.88;7.82;;;;;;;12.79;100.00;99006.97;4184699;28;20407;-74
2023/06/25 04:28:44;;;;;;;12.90;8.38;;;;;;;12.90;100.00;99010.66;4186013;28;20297;-74
2023/06/25 04:30:44;;;;;;;10.95;8.82;;;;;;;13.02;100.00;99010.41;4182365;28;20029;-74
2023/06/25 04:32:49;;;;;;;14.88;8.50;;;;;;;13.09;100.00;99006.91;4177612;28;20037;-74
2023/06/25 04:34:49;;;;;;;9.32;7.88;;;;;;;13.17;100.00;99003.81;4174997;28;20040;-74
2023/06/25 04:36:50;;;;;;;16.25;8.15;;;;;;;13.32;100.00;99009.50;4185206;28;20086;-74
2023/06/25 04:38:50;;;;;;;10.38;7.60;;;;;;;13.42;100.00;99006.06;4178331;28;20048;-75
2023/06/25 04:40:50;;;;;;;16.35;8.68;;;;;;;13.54;100.00;99010.50;4179342;28;20048;-74
2023/06/25 04:42:51;;;;;;;14.10;8.60;;;;;;;13.62;100.00;99007.41;4189015;28;20067;-74
2023/06/25 04:44:52;;;;;;;11.60;8.00;;;;;;;13.69;100.00;99012.22;4180650;28;20080;-74
2023/06/25 04:46:52;;;;;;;13.43;7.68;;;;;;;13.74;100.00;99003.53;4174433;28;20422;-74
2023/06/25 04:48:52;;;;;;;15.70;8.80;;;;;;;13.83;100.00;99004.00;4185550;28;20127;-74
2023/06/25 04:50:53;;;;;;;13.05;8.65;;;;;;;13.91;100.00;99008.41;4188533;28;20044;-74
2023/06/25 04:52:54;;;;;;;15.57;9.20;;;;;;;13.96;100.00;99008.03;4181677;28;20176;-74
2023/06/25 04:54:54;;;;;;;11.23;8.98;;;;;;;14.03;100.00;99010.06;4176514;28;20051;-74
2023/06/25 04:56:55;;;;;;;10.43;8.45;;;;;;;14.11;100.00;99002.56;4182480;28;20048;-74
2023/06/25 04:58:55;;;;;;;12.60;8.70;;;;;;;14.17;100.00;99006.56;4183852;28;20089;-74
2023/06/25 05:00:55;;;;;;;10.77;8.77;;;;;;;14.25;100.00;99002.66;4177652;28;20583;-74
2023/06/25 05:02:56;;;;;;;12.70;9.18;;;;;;;14.32;100.00;99002.69;4175260;28;20053;-74
2023/06/25 05:04:56;;;;;;;13.05;8.88;;;;;;;14.39;100.00;99004.69;4173065;28;20048;-74
2023/06/25 05:06:56;;;;;;;10.60;7.95;;;;;;;14.46;100.00;98997.19;4173905;28;20060;-74
2023/06/25 05:08:57;;;;;;;11.73;9.32;;;;;;;14.55;100.00;99000.41;4174694;28;20037;-74
2023/06/25 05:10:57;;;;;;;12.27;9.27;;;;;;;14.63;100.00;99006.00;4180542;28;20044;-74
2023/06/25 05:12:59;;;;;;;16.42;9.68;;;;;;;14.69;100.00;99004.44;4173197;28;20064;-74
2023/06/25 05:15:00;;;;;;;;;;;;;;;14.74;100.00;99004.06;4172535;28;21555;-74
2023/06/25 05:17:00;;;;;;;12.90;8.70;;;;;;;14.85;100.00;99005.69;4172932;28;20381;-74
2023/06/25 05:19:00;;;;;;;12.27;9.48;;;;;;;14.93;100.00;99000.94;4178531;28;20283;-74
2023/06/25 05:21:01;;;;;;;13.40;9.10;;;;;;;15.01;100.00;98993.38;4173563;28;20081;-74
2023/06/25 05:23:03;;;;;;;13.70;9.32;;;;;;;15.09;100.00;98995.78;4174239;28;20053;-74
2023/06/25 05:25:04;;;;;;;12.45;9.25;;;;;;;15.20;100.00;98993.00;4176662;28;20216;-74
2023/06/25 05:27:05;;;;;;;12.73;9.65;;;;;;;15.28;100.00;98991.03;4175698;28;20477;-74
2023/06/25 05:29:05;;;;;;;10.80;8.63;;;;;;;15.36;100.00;98987.06;4178378;28;20037;-74
2023/06/25 05:31:06;;;;;;;11.25;8.80;;;;;;;15.49;100.00;98995.84;4177818;28;20575;-74
2023/06/25 05:33:06;;;;;;;11.73;8.90;;;;;;;15.50;100.00;99000.22;4176338;28;20074;-74
2023/06/25 05:35:07;;;;;;;9.63;7.97;;;;;;;15.55;100.00;98992.22;4174835;28;20437;-74
2023/06/25 05:37:07;;;;;;;10.98;8.85;;;;;;;15.60;100.00;99003.00;4176483;28;20045;-74
2023/06/25 05:39:07;;;;;;;11.63;9.55;;;;;;;15.64;100.00;99003.84;4176775;28;20350;-74
2023/06/25 05:41:08;;;;;;;11.05;9.02;;;;;;;15.72;100.00;98997.06;4177023;28;20121;-74
2023/06/25 05:43:08;;;;;;;11.68;9.57;;;;;;;15.78;100.00;99000.22;4176423;28;20036;-74
2023/06/25 05:45:09;;;;;;;11.55;9.23;;;;;;;15.85;100.00;98997.41;4177293;28;20098;-74
2023/06/25 05:47:10;;;;;;;14.95;10.27;;;;;;;15.90;100.00;98993.44;4178213;28;20492;-74
2023/06/25 05:49:11;;;;;;;14.32;10.48;;;;;;;15.99;100.00;99002.97;4178184;28;20392;-74
2023/06/25 05:51:11;;;;;;;12.80;10.27;;;;;;;16.07;100.00;98995.41;4174816;28;20076;-74
2023/06/25 05:53:12;;;;;;;15.20;10.68;;;;;;;16.13;100.00;98990.19;4172377;28;20075;-74
2023/06/25 05:55:12;;;;;;;12.60;10.20;;;;;;;16.20;100.00;98990.16;4176628;28;20048;-74
2023/06/25 05:57:12;;;;;;;12.65;9.60;;;;;;;16.31;100.00;98996.53;4177612;28;20078;-74
2023/06/25 05:59:13;;;;;;;11.23;8.95;;;;;;;16.37;100.00;98983.72;4180398;28;20379;-74
2023/06/25 06:01:13;;;;;;;11.70;9.07;;;;;;;16.48;100.00;98990.06;4178765;28;20067;-74
2023/06/25 06:03:13;;;;;;;11.15;8.30;;;;;;;16.54;100.00;98985.63;4177140;28;20060;-74
2023/06/25 06:05:14;;;;;;;11.60;8.60;;;;;;;16.64;100.00;98997.19;4179232;28;20052;-74
2023/06/25 06:07:14;;;;;;;9.15;8.23;;;;;;;16.72;100.00;98985.63;4177195;28;20036;-74
2023/06/25 06:09:14;;;;;;;10.73;8.20;;;;;;;16.94;100.00;98980.69;4175332;28;20048;-74
2023/06/25 06:11:14;;;;;;;12.18;8.55;;;;;;;17.07;100.00;98981.81;4177357;28;20060;-74
2023/06/25 06:13:15;;;;;;;13.85;8.90;;;;;;;17.18;100.00;98983.72;4175013;28;20363;-74
2023/06/25 06:15:16;;;;;;;13.00;8.15;;;;;;;17.20;100.00;98982.09;4180304;28;20032;-74
2023/06/25 06:17:17;;;;;;;10.65;8.23;;;;;;;17.28;100.00;98992.03;4178648;28;20045;-74
2023/06/25 06:19:17;;;;;;;13.82;9.30;;;;;;;17.32;100.00;98990.03;4177434;28;20047;-74
2023/06/25 06:21:17;;;;;;;14.30;9.52;;;;;;;17.36;100.00;98978.78;4177543;28;20073;-74
2023/06/25 06:23:18;;;;;;;12.73;9.02;;;;;;;17.39;100.00;98987.16;4174375;28;20068;-74
2023/06/25 06:25:18;;;;;;;12.05;9.23;;;;;;;17.45;100.00;98981.91;4176777;28;20512;-74
2023/06/25 06:27:19;;;;;;;10.50;8.35;;;;;;;17.50;100.00;98987.06;4178449;28;20079;-74
2023/06/25 06:29:19;;;;;;;10.00;8.35;;;;;;;17.58;100.00;98973.81;4176860;28;20166;-74
2023/06/25 06:31:20;;;;;;;9.57;8.30;;;;;;;17.64;100.00;98980.56;4176305;28;20454;-74
2023/06/25 06:33:20;;;;;;;10.77;7.93;;;;;;;17.67;100.00;98982.53;4177000;28;20383;-74
2023/06/25 06:35:21;;;;;;;9.55;8.07;;;;;;;17.76;100.00;98985.69;4178110;28;20056;-74
2023/06/25 06:37:21;;;;;;;10.18;7.70;;;;;;;17.81;100.00;98979.63;4173885;28;20073;-74
2023/06/25 06:39:22;;;;;;;14.45;8.85;;;;;;;17.89;100.00;98981.16;4176933;28;20139;-74
2023/06/25 06:41:22;;;;;;;10.65;7.57;;;;;;;17.96;100.00;98981.09;4173816;28;20132;-74
2023/06/25 06:43:22;;;;;;;9.38;8.15;;;;;;;18.03;100.00;98980.19;4178699;28;20087;-74
2023/06/25 06:45:23;;;;;;;14.63;8.13;;;;;;;18.16;100.00;98986.09;4181695;28;20041;-74
2023/06/25 06:47:23;;;;;;;8.52;6.85;;;;;;;18.23;100.00;98986.81;4091873;28;20510;-74
2023/06/25 06:49:23;;;;;;;9.38;7.20;;;;;;;18.27;100.00;98988.75;4179796;28;20199;-74
2023/06/25 06:51:24;;;;;;;10.30;8.30;;;;;;;18.33;100.00;98989.91;4178636;28;20049;-74
2023/06/25 06:53:25;;;;;;;15.32;8.15;;;;;;;18.33;100.00;98978.69;4179501;28;20044;-74
2023/06/25 06:55:26;;;;;;;9.52;7.68;;;;;;;18.42;100.00;98981.78;4183305;28;20328;-74
2023/06/25 06:57:26;;;;;;;9.43;7.28;;;;;;;18.44;100.00;98985.75;4193740;28;20392;-74
2023/06/25 06:59:26;;;;;;;10.77;8.10;;;;;;;18.55;100.00;98985.63;4183157;28;20048;-74
2023/06/25 07:01:27;;;;;;;12.90;7.90;;;;;;;18.64;100.00;98985.91;4188071;28;20056;-74
2023/06/25 07:03:27;;;;;;;11.20;8.38;;;;;;;18.73;100.00;98993.84;4178982;28;20048;-74
2023/06/25 07:05:27;;;;;;;11.95;8.30;;;;;;;18.80;100.00;98988.13;4181155;28;20043;-74
2023/06/25 07:07:28;;;;;;;11.70;7.55;;;;;;;18.89;100.00;98996.03;4180951;28;20068;-74
2023/06/25 07:09:28;;;;;;;9.30;7.38;;;;;;;18.95;100.00;98986.72;4179545;28;20487;-74
2023/06/25 07:11:28;;;;;;;8.77;7.22;;;;;;;19.03;100.00;98991.03;4186307;28;20052;-74
2023/06/25 07:13:29;;;;;;;11.20;7.45;;;;;;;19.14;100.00;98984.47;4178911;28;20036;-74
2023/06/25 07:15:30;;;;;;;11.73;7.18;;;;;;;19.23;100.00;98990.31;4178442;28;20510;-74
2023/06/25 07:17:30;;;;;;;10.60;7.70;;;;;;;19.31;100.00;98986.19;4178820;28;20301;-74
2023/06/25 07:19:30;;;;;;;11.43;7.00;;;;;;;19.40;100.00;98980.84;4178087;28;20037;-74
2023/06/25 07:21:31;;;;;;;8.73;6.65;;;;;;;19.48;100.00;98976.69;4183947;28;20041;-74
2023/06/25 07:23:33;;;;;;;9.13;7.00;;;;;;;19.58;100.00;98983.38;4180693;28;20147;-74
2023/06/25 07:25:35;;;;;;;9.23;6.68;;;;;;;19.69;100.00;98986.78;4177701;28;20045;-75
2023/06/25 07:27:36;;;;;;;9.25;6.45;;;;;;;19.81;100.00;98989.00;4187424;28;20465;-74
2023/06/25 07:29:37;;;;;;;7.35;6.32;;;;;;;19.87;100.00;98990.09;4180010;28;20381;-74
2023/06/25 07:31:38;;;;;;;8.95;6.43;;;;;;;19.99;100.00;98985.88;4190371;28;20097;-74
2023/06/25 07:33:38;;;;;;;14.07;6.43;;;;;;;20.03;100.00;98992.22;4180018;28;20071;-75
2023/06/25 07:35:38;;;;;;;7.00;6.25;;;;;;;20.08;100.00;98990.91;4183489;28;20049;-75
2023/06/25 07:37:40;;;;;;;10.80;6.40;;;;;;;20.11;100.00;98984.47;4180331;28;20041;-74
2023/06/25 07:39:40;;;;;;;7.65;6.32;;;;;;;20.17;100.00;98997.56;4178992;28;20079;-75
2023/06/25 07:41:40;;;;;;;10.75;6.05;;;;;;;20.26;100.00;98984.94;4183202;28;20082;-74
2023/06/25 07:43:41;;;;;;;8.95;6.68;;;;;;;20.36;100.00;98984.75;4178368;28;20496;-74
2023/06/25 07:45:41;;;;;;;10.32;6.28;;;;;;;20.41;100.00;98977.84;4178743;28;20907;-74
2023/06/25 07:47:42;;;;;;;8.32;5.95;;;;;;;20.48;100.00;98978.50;4179204;28;20435;-74
2023/06/25 07:49:42;;;;;;;10.38;6.43;;;;;;;20.56;100.00;98981.19;4178538;28;20457;-74
2023/06/25 07:51:49;;;;;;;6.30;5.60;;;;;;;20.59;99.66;98974.69;4177296;28;20136;-74
2023/06/25 07:53:49;;;;;;;8.73;5.90;;;;;;;20.64;99.96;98983.41;4176463;28;20251;-74
2023/06/25 07:55:50;;;;;;;9.45;5.95;;;;;;;20.69;100.00;98977.28;4175352;28;20037;-75
2023/06/25 07:57:50;;;;;;;6.50;5.30;;;;;;;20.76;100.00;98977.09;4186223;28;20321;-74
2023/06/25 07:59:53;;;;;;;5.75;4.72;;;;;;;20.89;98.51;98973.63;4173130;28;20094;-74
2023/06/25 08:01:53;;;;;;;7.25;5.47;;;;;;;20.97;97.83;98970.22;4171833;28;20050;-74
2023/06/25 08:03:53;;;;;;;7.20;5.10;;;;;;;21.14;98.30;98982.31;4173209;28;20033;-75
2023/06/25 08:05:53;;;;;;;5.88;4.85;;;;;;;21.30;95.18;98970.31;4171333;28;20041;-74
2023/06/25 08:07:56;;;;;;;5.65;4.80;;;;;;;21.45;94.09;98976.38;4177433;28;20098;-74
2023/06/25 08:09:56;;;;;;;6.05;4.40;;;;;;;21.56;90.10;98979.72;4176335;28;20028;-74
2023/06/25 08:11:57;;;;;;;6.65;5.20;;;;;;;21.66;88.25;98975.84;4174587;28;20320;-74
2023/06/25 08:13:57;;;;;;;5.47;4.60;;;;;;;21.68;91.14;98970.59;4178924;28;20495;-74
2023/06/25 08:15:57;;;;;;;8.30;5.28;;;;;;;21.71;89.12;98964.06;4171767;28;20063;-74
2023/06/25 08:17:58;;;;;;;6.10;4.75;;;;;;;21.78;90.71;98972.31;4176287;28;20053;-74
2023/06/25 08:19:58;;;;;;;5.80;4.53;;;;;;;21.87;92.76;98964.03;4177535;28;20047;-74
2023/06/25 08:21:58;;;;;;;4.63;4.20;;;;;;;21.94;92.74;98960.25;4170940;28;20328;-74
2023/06/25 08:23:59;;;;;;;5.88;4.07;;;;;;;22.02;91.13;98955.22;4171942;28;20052;-74
2023/06/25 08:25:59;;;;;;;5.00;4.20;;;;;;;22.02;85.67;98963.66;4168466;28;20040;-74
2023/06/25 08:27:59;;;;;;;5.57;4.80;;;;;;;22.02;83.28;98958.03;4170453;28;20045;-74
2023/06/25 08:30:00;;;;;;;5.40;3.95;;;;;;;22.01;79.32;98953.59;4169788;28;20040;-74
2023/06/25 08:32:00;;;;;;;6.30;4.55;;;;;;;22.06;82.68;98962.31;4173449;28;20056;-74
2023/06/25 08:34:01;;;;;;;5.10;4.40;;;;;;;22.11;84.85;98959.00;4135544;27;20515;-75
2023/06/25 08:36:01;;;;;;;5.03;4.53;;;;;;;22.21;82.50;98957.13;4183243;28;20037;-74
2023/06/25 08:38:01;;;;;;;8.07;4.40;;;;;;;22.22;82.92;98955.09;4186933;28;20408;-76
2023/06/25 08:40:02;;;;;;;5.35;4.43;;;;;;;22.20;80.62;98941.44;4172743;28;20033;-75
2023/06/25 08:42:03;;;;;;;6.57;4.35;;;;;;;22.27;82.98;98951.72;4174744;28;20068;-75
2023/06/25 08:44:03;;;;;;;6.65;4.30;;;;;;;22.33;79.86;98942.25;4173642;28;20055;-75
2023/06/25 08:46:06;;;;;;;4.88;4.38;;;;;;;22.37;78.11;98950.63;4179459;28;20041;-75
2023/06/25 08:48:11;;;;;;;8.80;4.80;;;;;;;22.35;76.46;98947.47;4173551;28;20405;-75
2023/06/25 08:50:12;;;;;;;6.85;3.88;;;;;;;22.41;77.85;98949.28;4177897;28;20029;-74
2023/06/25 08:52:12;;;;;;;6.32;3.97;;;;;;;22.36;80.40;98938.56;4173814;28;20059;-75
2023/06/25 08:54:12;;;;;;;5.15;3.65;;;;;;;22.46;75.06;98933.06;4175403;28;20029;-76
2023/06/25 08:56:16;;;;;;;5.45;4.10;;;;;;;22.56;77.38;98934.78;4185802;28;20095;-75
2023/06/25 08:58:16;;;;;;;6.65;4.15;;;;;;;22.69;74.57;98942.03;4189419;28;20303;-75
2023/06/25 09:00:17;;;;;;;5.25;4.00;;;;;;;22.73;75.22;98938.28;4186356;28;20020;-75
2023/06/25 09:02:18;;;;;;;4.72;4.22;;;;;;;22.78;77.72;98938.53;4188797;28;20036;-75
2023/06/25 09:04:18;;;;;;;5.97;3.85;;;;;;;22.85;75.30;98932.72;4188547;28;20032;-75
2023/06/25 09:06:19;;;;;;;12.50;9.30;;;;;;;22.93;74.24;98933.28;4177411;28;20439;-75
2023/06/25 09:08:21;;;;;;;7.03;3.72;;;;;;;22.97;72.86;98928.31;4182400;28;20024;-74
2023/06/25 09:10:22;;;;;;;;;;;;;;;22.96;74.56;98935.97;4189586;28;20499;-74
2023/06/25 09:12:23;;;;;;;4.65;4.05;;;;;;;22.92;75.50;98920.38;4182651;28;19921;-75
2023/06/25 09:14:24;;;;;;;4.97;3.70;;;;;;;22.91;74.73;98928.06;4174114;28;20132;-75
2023/06/25 09:16:26;;;;;;;5.82;4.45;;;;;;;22.94;74.43;98924.34;4174257;28;20142;-75
2023/06/25 09:18:26;;;;;;;4.30;3.60;;;;;;;23.02;76.98;98929.78;4174160;28;20227;-75